createdAt,value
2023-08-12T00:00:49.875Z,1013.82
2023-08-12T00:01:49.830Z,1013.82
2023-08-12T00:02:49.836Z,1013.83
2023-08-12T00:03:49.946Z,1013.82
2023-08-12T00:04:49.831Z,1013.81
2023-08-12T00:05:49.856Z,1013.82
2023-08-12T00:06:49.832Z,1013.83
2023-08-12T00:07:49.846Z,1013.86
2023-08-12T00:08:49.827Z,1013.81
2023-08-12T00:09:49.829Z,1013.83
2023-08-12T00:10:49.833Z,1013.84
2023-08-12T00:11:49.832Z,1013.86
2023-08-12T00:12:49.860Z,1013.86
2023-08-12T00:13:49.836Z,1013.84
2023-08-12T00:14:49.845Z,1013.88
2023-08-12T00:15:49.859Z,1013.86
2023-08-12T00:16:49.842Z,1013.84
2023-08-12T00:17:49.862Z,1013.80
2023-08-12T00:18:49.847Z,1013.81
2023-08-12T00:19:49.846Z,1013.75
2023-08-12T00:20:49.850Z,1013.77
2023-08-12T00:21:49.849Z,1013.74
2023-08-12T00:22:49.853Z,1013.71
2023-08-12T00:23:49.909Z,1013.73
2023-08-12T00:24:49.854Z,1013.70
2023-08-12T00:25:49.859Z,1013.74
2023-08-12T00:26:49.857Z,1013.72
2023-08-12T00:27:49.858Z,1013.71
2023-08-12T00:28:49.863Z,1013.73
2023-08-12T00:29:49.873Z,1013.75
2023-08-12T00:30:49.889Z,1013.77
2023-08-12T00:31:49.862Z,1013.74
2023-08-12T00:32:49.900Z,1013.76
2023-08-12T00:33:49.867Z,1013.71
2023-08-12T00:34:49.872Z,1013.72
2023-08-12T00:35:49.875Z,1013.73
2023-08-12T00:36:49.893Z,1013.69
2023-08-12T00:37:49.878Z,1013.68
2023-08-12T00:38:49.875Z,1013.68
2023-08-12T00:39:50.419Z,1013.67
2023-08-12T00:40:49.882Z,1013.70
2023-08-12T00:41:49.885Z,1013.65
2023-08-12T00:42:49.881Z,1013.66
2023-08-12T00:43:49.881Z,1013.62
2023-08-12T00:44:49.886Z,1013.66
2023-08-12T00:45:49.886Z,1013.63
2023-08-12T00:46:49.954Z,1013.65
2023-08-12T00:47:49.940Z,1013.64
2023-08-12T00:48:49.892Z,1013.68
2023-08-12T00:49:49.894Z,1013.67
2023-08-12T00:50:49.894Z,1013.69
2023-08-12T00:51:49.890Z,1013.70
2023-08-12T00:52:49.905Z,1013.72
2023-08-12T00:53:49.896Z,1013.70
2023-08-12T00:54:49.901Z,1013.68
2023-08-12T00:55:49.933Z,1013.68
2023-08-12T00:56:49.905Z,1013.61
2023-08-12T00:57:49.908Z,1013.58
2023-08-12T00:58:49.922Z,1013.53
2023-08-12T00:59:49.912Z,1013.53
2023-08-12T01:00:49.932Z,1013.47
2023-08-12T01:01:49.958Z,1013.45
2023-08-12T01:02:50.135Z,1013.43
2023-08-12T01:03:49.999Z,1013.49
2023-08-12T01:04:49.916Z,1013.47
2023-08-12T01:05:49.921Z,1013.40
2023-08-12T01:06:49.936Z,1013.39
2023-08-12T01:07:49.929Z,1013.35
2023-08-12T01:08:49.922Z,1013.31
2023-08-12T01:09:49.928Z,1013.34
2023-08-12T01:10:49.929Z,1013.31
2023-08-12T01:11:49.954Z,1013.35
2023-08-12T01:12:49.938Z,1013.34
2023-08-12T01:13:49.933Z,1013.39
2023-08-12T01:14:49.937Z,1013.41
2023-08-12T01:15:49.942Z,1013.41
2023-08-12T01:16:49.991Z,1013.36
2023-08-12T01:17:49.978Z,1013.34
2023-08-12T01:18:49.977Z,1013.34
2023-08-12T01:19:49.948Z,1013.31
2023-08-12T01:20:49.962Z,1013.29
2023-08-12T01:21:49.947Z,1013.24
2023-08-12T01:22:49.957Z,1013.24
2023-08-12T01:23:49.955Z,1013.23
2023-08-12T01:24:49.950Z,1013.27
2023-08-12T01:25:49.957Z,1013.28
2023-08-12T01:26:49.960Z,1013.27
2023-08-12T01:27:49.979Z,1013.29
2023-08-12T01:28:49.960Z,1013.24
2023-08-12T01:29:49.959Z,1013.24
2023-08-12T01:30:50.017Z,1013.30
2023-08-12T01:31:49.963Z,1013.28
2023-08-12T01:32:50.051Z,1013.26
2023-08-12T01:33:49.966Z,1013.22
2023-08-12T01:34:49.970Z,1013.19
2023-08-12T01:35:49.970Z,1013.23
2023-08-12T01:36:49.990Z,1013.14
2023-08-12T01:37:49.974Z,1013.16
2023-08-12T01:38:49.972Z,1013.18
2023-08-12T01:39:49.974Z,1013.15
2023-08-12T01:40:49.976Z,1013.06
2023-08-12T01:41:49.978Z,1013.09
2023-08-12T01:42:49.983Z,1013.05
2023-08-12T01:43:50.004Z,1013.03
2023-08-12T01:44:49.982Z,1013.03
2023-08-12T01:45:50.013Z,1012.98
2023-08-12T01:46:49.992Z,1013.00
2023-08-12T01:47:50.054Z,1013.01
2023-08-12T01:48:49.990Z,1012.97
2023-08-12T01:49:50.018Z,1012.96
2023-08-12T01:50:50.001Z,1012.94
2023-08-12T01:51:49.994Z,1012.96
2023-08-12T01:52:49.994Z,1012.96
2023-08-12T01:53:50.003Z,1012.95
2023-08-12T01:54:50.030Z,1012.96
2023-08-12T01:55:50.061Z,1012.95
2023-08-12T01:56:50.002Z,1012.91
2023-08-12T01:57:50.004Z,1012.89
2023-08-12T01:58:50.006Z,1012.85
2023-08-12T01:59:50.023Z,1012.83
2023-08-12T02:00:50.016Z,1012.84
2023-08-12T02:01:50.057Z,1012.84
2023-08-12T02:02:50.056Z,1012.83
2023-08-12T02:03:50.094Z,1012.78
2023-08-12T02:04:50.014Z,1012.79
2023-08-12T02:05:50.015Z,1012.77
2023-08-12T02:06:50.018Z,1012.76
2023-08-12T02:07:50.056Z,1012.76
2023-08-12T02:08:50.026Z,1012.73
2023-08-12T02:09:50.036Z,1012.76
2023-08-12T02:10:50.034Z,1012.77
2023-08-12T02:11:50.029Z,1012.72
2023-08-12T02:12:50.031Z,1012.75
2023-08-12T02:13:50.031Z,1012.77
2023-08-12T02:14:50.034Z,1012.74
2023-08-12T02:15:50.128Z,1012.72
2023-08-12T02:16:50.041Z,1012.72
2023-08-12T02:17:50.084Z,1012.71
2023-08-12T02:18:50.044Z,1012.70
2023-08-12T02:19:50.044Z,1012.74
2023-08-12T02:20:50.044Z,1012.71
2023-08-12T02:21:50.055Z,1012.67
2023-08-12T02:22:50.044Z,1012.65
2023-08-12T02:23:50.044Z,1012.67
2023-08-12T02:24:50.054Z,1012.66
2023-08-12T02:25:50.055Z,1012.60
2023-08-12T02:26:50.054Z,1012.61
2023-08-12T02:27:50.051Z,1012.61
2023-08-12T02:28:50.060Z,1012.61
2023-08-12T02:29:50.081Z,1012.62
2023-08-12T02:30:50.075Z,1012.62
2023-08-12T02:31:50.132Z,1012.63
2023-08-12T02:32:50.082Z,1012.67
2023-08-12T02:33:50.070Z,1012.63
2023-08-12T02:34:50.072Z,1012.62
2023-08-12T02:35:50.072Z,1012.63
2023-08-12T02:36:50.081Z,1012.65
2023-08-12T02:37:50.070Z,1012.63
2023-08-12T02:38:50.072Z,1012.60
2023-08-12T02:39:50.072Z,1012.63
2023-08-12T02:40:50.072Z,1012.60
2023-08-12T02:41:50.090Z,1012.63
2023-08-12T02:42:50.076Z,1012.67
2023-08-12T02:43:50.094Z,1012.62
2023-08-12T02:44:50.111Z,1012.64
2023-08-12T02:45:50.113Z,1012.65
2023-08-12T02:46:50.086Z,1012.64
2023-08-12T02:47:50.136Z,1012.65
2023-08-12T02:48:50.088Z,1012.63
2023-08-12T02:49:50.092Z,1012.61
2023-08-12T02:50:50.088Z,1012.61
2023-08-12T02:51:50.097Z,1012.63
2023-08-12T02:52:50.093Z,1012.61
2023-08-12T02:53:50.272Z,1012.61
2023-08-12T02:54:50.099Z,1012.63
2023-08-12T02:55:50.104Z,1012.57
2023-08-12T02:56:50.105Z,1012.57
2023-08-12T02:57:50.116Z,1012.59
2023-08-12T02:58:50.127Z,1012.58
2023-08-12T02:59:50.101Z,1012.58
2023-08-12T03:00:50.102Z,1012.62
2023-08-12T03:01:50.112Z,1012.51
2023-08-12T03:02:50.221Z,1012.53
2023-08-12T03:03:50.133Z,1012.48
2023-08-12T03:04:50.122Z,1012.50
2023-08-12T03:05:50.112Z,1012.51
2023-08-12T03:06:50.122Z,1012.53
2023-08-12T03:07:50.116Z,1012.49
2023-08-12T03:08:50.116Z,1012.50
2023-08-12T03:09:50.124Z,1012.52
2023-08-12T03:10:50.118Z,1012.51
2023-08-12T03:11:50.143Z,1012.55
2023-08-12T03:12:50.121Z,1012.53
2023-08-12T03:13:50.130Z,1012.51
2023-08-12T03:14:50.127Z,1012.51
2023-08-12T03:15:50.150Z,1012.50
2023-08-12T03:16:50.130Z,1012.48
2023-08-12T03:17:50.149Z,1012.48
2023-08-12T03:18:50.317Z,1012.42
2023-08-12T03:19:50.152Z,1012.39
2023-08-12T03:20:50.134Z,1012.37
2023-08-12T03:21:50.139Z,1012.37
2023-08-12T03:22:50.143Z,1012.31
2023-08-12T03:23:50.141Z,1012.30
2023-08-12T03:24:50.139Z,1012.25
2023-08-12T03:25:50.174Z,1012.27
2023-08-12T03:26:50.154Z,1012.28
2023-08-12T03:27:50.144Z,1012.27
2023-08-12T03:28:50.166Z,1012.24
2023-08-12T03:29:50.160Z,1012.25
2023-08-12T03:30:50.157Z,1012.26
2023-08-12T03:31:50.169Z,1012.22
2023-08-12T03:32:50.203Z,1012.20
2023-08-12T03:33:50.165Z,1012.23
2023-08-12T03:34:50.157Z,1012.18
2023-08-12T03:35:50.200Z,1012.19
2023-08-12T03:36:50.163Z,1012.22
2023-08-12T03:37:50.175Z,1012.22
2023-08-12T03:38:50.161Z,1012.28
2023-08-12T03:39:50.166Z,1012.28
2023-08-12T03:40:50.168Z,1012.24
2023-08-12T03:41:50.171Z,1012.25
2023-08-12T03:42:50.171Z,1012.23
2023-08-12T03:43:50.174Z,1012.23
2023-08-12T03:44:50.174Z,1012.21
2023-08-12T03:45:50.180Z,1012.26
2023-08-12T03:46:50.188Z,1012.24
2023-08-12T03:47:50.202Z,1012.26
2023-08-12T03:48:50.200Z,1012.17
2023-08-12T03:49:50.178Z,1012.16
2023-08-12T03:50:50.181Z,1012.11
2023-08-12T03:51:50.210Z,1012.07
2023-08-12T03:52:50.187Z,1012.02
2023-08-12T03:53:50.191Z,1011.98
2023-08-12T03:54:50.219Z,1011.91
2023-08-12T03:55:50.198Z,1011.81
2023-08-12T03:56:50.187Z,1011.78
2023-08-12T03:57:50.194Z,1011.74
2023-08-12T03:58:50.194Z,1011.71
2023-08-12T03:59:50.196Z,1011.75
2023-08-12T04:00:50.221Z,1011.75
2023-08-12T04:01:50.197Z,1011.72
2023-08-12T04:02:50.281Z,1011.74
2023-08-12T04:03:50.225Z,1011.71
2023-08-12T04:04:50.204Z,1011.70
2023-08-12T04:05:50.205Z,1011.65
2023-08-12T04:06:50.209Z,1011.70
2023-08-12T04:07:50.243Z,1011.65
2023-08-12T04:08:50.210Z,1011.59
2023-08-12T04:09:50.208Z,1011.54
2023-08-12T04:10:50.208Z,1011.56
2023-08-12T04:11:50.215Z,1011.55
2023-08-12T04:12:50.215Z,1011.53
2023-08-12T04:13:50.221Z,1011.55
2023-08-12T04:14:50.224Z,1011.50
2023-08-12T04:15:50.223Z,1011.48
2023-08-12T04:16:50.246Z,1011.49
2023-08-12T04:17:50.276Z,1011.51
2023-08-12T04:18:50.235Z,1011.52
2023-08-12T04:19:50.227Z,1011.53
2023-08-12T04:20:50.284Z,1011.50
2023-08-12T04:21:50.231Z,1011.48
2023-08-12T04:22:50.375Z,1011.47
2023-08-12T04:23:50.246Z,1011.50
2023-08-12T04:24:50.234Z,1011.51
2023-08-12T04:25:50.258Z,1011.54
2023-08-12T04:26:50.231Z,1011.56
2023-08-12T04:27:50.245Z,1011.57
2023-08-12T04:28:50.235Z,1011.56
2023-08-12T04:29:50.240Z,1011.56
2023-08-12T04:30:50.253Z,1011.55
2023-08-12T04:31:50.258Z,1011.54
2023-08-12T04:32:50.298Z,1011.56
2023-08-12T04:33:50.251Z,1011.56
2023-08-12T04:34:50.248Z,1011.55
2023-08-12T04:35:50.256Z,1011.58
2023-08-12T04:36:50.252Z,1011.59
2023-08-12T04:37:50.250Z,1011.60
2023-08-12T04:38:50.250Z,1011.65
2023-08-12T04:39:50.293Z,1011.57
2023-08-12T04:40:50.281Z,1011.52
2023-08-12T04:41:50.266Z,1011.49
2023-08-12T04:42:50.268Z,1011.45
2023-08-12T04:43:50.260Z,1011.47
2023-08-12T04:44:50.274Z,1011.41
2023-08-12T04:45:50.268Z,1011.40
2023-08-12T04:46:50.266Z,1011.42
2023-08-12T04:47:50.313Z,1011.41
2023-08-12T04:48:50.268Z,1011.48
2023-08-12T04:49:50.271Z,1011.46
2023-08-12T04:50:50.274Z,1011.44
2023-08-12T04:51:50.275Z,1011.42
2023-08-12T04:52:50.274Z,1011.42
2023-08-12T04:53:50.280Z,1011.37
2023-08-12T04:54:50.281Z,1011.38
2023-08-12T04:55:50.299Z,1011.39
2023-08-12T04:56:50.278Z,1011.41
2023-08-12T04:57:50.286Z,1011.41
2023-08-12T04:58:50.284Z,1011.43
2023-08-12T04:59:50.293Z,1011.43
2023-08-12T05:00:50.305Z,1011.44
2023-08-12T05:02:03.504Z,1011.43
2023-08-12T05:02:50.519Z,1011.43
2023-08-12T05:03:50.291Z,1011.45
2023-08-12T05:04:50.305Z,1011.41
2023-08-12T05:05:50.295Z,1011.42
2023-08-12T05:06:50.294Z,1011.39
2023-08-12T05:07:50.309Z,1011.38
2023-08-12T05:08:50.297Z,1011.37
2023-08-12T05:09:50.301Z,1011.41
2023-08-12T05:10:50.304Z,1011.40
2023-08-12T05:11:50.325Z,1011.40
2023-08-12T05:12:50.305Z,1011.41
2023-08-12T05:13:50.303Z,1011.42
2023-08-12T05:14:50.306Z,1011.40
2023-08-12T05:15:50.422Z,1011.38
2023-08-12T05:16:50.322Z,1011.38
2023-08-12T05:17:50.346Z,1011.37
2023-08-12T05:18:50.313Z,1011.36
2023-08-12T05:19:50.311Z,1011.34
2023-08-12T05:20:50.317Z,1011.40
2023-08-12T05:21:50.319Z,1011.39
2023-08-12T05:22:50.326Z,1011.42
2023-08-12T05:23:50.321Z,1011.45
2023-08-12T05:24:50.324Z,1011.44
2023-08-12T05:25:50.858Z,1011.44
2023-08-12T05:26:50.325Z,1011.43
2023-08-12T05:27:50.342Z,1011.43
2023-08-12T05:28:50.326Z,1011.45
2023-08-12T05:29:50.347Z,1011.43
2023-08-12T05:30:50.360Z,1011.40
2023-08-12T05:31:50.374Z,1011.37
2023-08-12T05:32:50.390Z,1011.34
2023-08-12T05:33:50.360Z,1011.33
2023-08-12T05:34:50.347Z,1011.33
2023-08-12T05:35:50.336Z,1011.31
2023-08-12T05:36:50.344Z,1011.28
2023-08-12T05:37:50.342Z,1011.25
2023-08-12T05:38:50.345Z,1011.25
2023-08-12T05:39:50.352Z,1011.22
2023-08-12T05:40:50.351Z,1011.23
2023-08-12T05:41:50.350Z,1011.22
2023-08-12T05:42:50.349Z,1011.24
2023-08-12T05:43:50.380Z,1011.22
2023-08-12T05:44:50.369Z,1011.21
2023-08-12T05:45:50.399Z,1011.21
2023-08-12T05:46:50.360Z,1011.20
2023-08-12T05:47:50.418Z,1011.19
2023-08-12T05:48:50.364Z,1011.21
2023-08-12T05:49:50.360Z,1011.23
2023-08-12T05:50:50.370Z,1011.25
2023-08-12T05:51:50.360Z,1011.26
2023-08-12T05:52:50.383Z,1011.28
2023-08-12T05:53:50.366Z,1011.29
2023-08-12T05:54:50.381Z,1011.30
2023-08-12T05:55:50.382Z,1011.34
2023-08-12T05:56:50.370Z,1011.32
2023-08-12T05:57:50.374Z,1011.38
2023-08-12T05:58:50.384Z,1011.34
2023-08-12T05:59:50.392Z,1011.39
2023-08-12T06:00:50.380Z,1011.36
2023-08-12T06:01:50.381Z,1011.33
2023-08-12T06:02:52.719Z,1011.34
2023-08-12T06:03:50.403Z,1011.36
2023-08-12T06:04:50.379Z,1011.35
2023-08-12T06:05:50.407Z,1011.37
2023-08-12T06:06:50.395Z,1011.43
2023-08-12T06:07:50.382Z,1011.46
2023-08-12T06:08:50.384Z,1011.50
2023-08-12T06:09:50.385Z,1011.51
2023-08-12T06:10:50.395Z,1011.49
2023-08-12T06:11:50.388Z,1011.50
2023-08-12T06:12:50.390Z,1011.48
2023-08-12T06:13:50.441Z,1011.40
2023-08-12T06:14:50.397Z,1011.40
2023-08-12T06:15:50.436Z,1011.41
2023-08-12T06:16:50.398Z,1011.37
2023-08-12T06:17:50.433Z,1011.42
2023-08-12T06:18:50.453Z,1011.34
2023-08-12T06:19:50.400Z,1011.32
2023-08-12T06:20:50.402Z,1011.33
2023-08-12T06:21:50.402Z,1011.32
2023-08-12T06:22:50.409Z,1011.33
2023-08-12T06:23:50.506Z,1011.34
2023-08-12T06:24:50.410Z,1011.27
2023-08-12T06:25:50.407Z,1011.25
2023-08-12T06:26:50.424Z,1011.16
2023-08-12T06:27:50.413Z,1011.23
2023-08-12T06:28:50.465Z,1011.17
2023-08-12T06:29:50.425Z,1011.19
2023-08-12T06:30:50.475Z,1011.20
2023-08-12T06:31:50.496Z,1011.15
2023-08-12T06:32:50.475Z,1011.15
2023-08-12T06:33:50.522Z,1011.09
2023-08-12T06:34:50.426Z,1011.07
2023-08-12T06:35:51.368Z,1011.05
2023-08-12T06:36:50.428Z,1011.11
2023-08-12T06:37:50.428Z,1011.07
2023-08-12T06:38:50.538Z,1011.04
2023-08-12T06:39:50.452Z,1011.02
2023-08-12T06:40:50.432Z,1010.97
2023-08-12T06:41:50.435Z,1010.91
2023-08-12T06:42:50.437Z,1010.90
2023-08-12T06:43:50.535Z,1010.93
2023-08-12T06:44:50.442Z,1010.94
2023-08-12T06:45:50.550Z,1010.95
2023-08-12T06:46:50.445Z,1010.94
2023-08-12T06:47:50.485Z,1010.90
2023-08-12T06:48:50.597Z,1010.89
2023-08-12T06:49:50.445Z,1010.92
2023-08-12T06:50:50.449Z,1011.00
2023-08-12T06:51:50.449Z,1010.97
2023-08-12T06:52:50.455Z,1011.00
2023-08-12T06:53:50.603Z,1011.06
2023-08-12T06:54:50.464Z,1011.07
2023-08-12T06:55:50.458Z,1011.01
2023-08-12T06:56:50.471Z,1010.95
2023-08-12T06:57:50.483Z,1010.92
2023-08-12T06:58:50.471Z,1010.93
2023-08-12T06:59:50.459Z,1010.88
2023-08-12T07:00:50.484Z,1010.79
2023-08-12T07:01:50.462Z,1010.75
2023-08-12T07:02:50.485Z,1010.70
2023-08-12T07:03:50.514Z,1010.69
2023-08-12T07:04:50.478Z,1010.64
2023-08-12T07:05:50.473Z,1010.54
2023-08-12T07:06:50.474Z,1010.47
2023-08-12T07:07:50.474Z,1010.46
2023-08-12T07:08:50.473Z,1010.49
2023-08-12T07:09:50.482Z,1010.58
2023-08-12T07:10:50.493Z,1010.66
2023-08-12T07:11:50.481Z,1010.69
2023-08-12T07:12:50.482Z,1010.81
2023-08-12T07:13:50.485Z,1010.87
2023-08-12T07:14:50.484Z,1010.95
2023-08-12T07:15:50.540Z,1011.00
2023-08-12T07:16:50.487Z,1011.00
2023-08-12T07:17:50.526Z,1011.02
2023-08-12T07:18:50.491Z,1011.03
2023-08-12T07:19:50.509Z,1010.98
2023-08-12T07:20:50.515Z,1010.94
2023-08-12T07:21:50.499Z,1010.95
2023-08-12T07:22:50.567Z,1010.96
2023-08-12T07:24:03.264Z,1011.02
2023-08-12T07:24:50.499Z,1011.07
2023-08-12T07:25:50.529Z,1011.08
2023-08-12T07:26:50.499Z,1010.98
2023-08-12T07:27:50.511Z,1010.92
2023-08-12T07:28:50.504Z,1010.84
2023-08-12T07:29:50.504Z,1010.90
2023-08-12T07:30:50.581Z,1010.96
2023-08-12T07:31:50.520Z,1010.96
2023-08-12T07:32:50.545Z,1011.04
2023-08-12T07:33:50.516Z,1011.08
2023-08-12T07:34:50.522Z,1011.10
2023-08-12T07:35:50.536Z,1011.05
2023-08-12T07:36:50.518Z,1011.08
2023-08-12T07:37:50.515Z,1011.07
2023-08-12T07:38:50.525Z,1011.12
2023-08-12T07:39:50.514Z,1011.07
2023-08-12T07:40:50.523Z,1011.07
2023-08-12T07:41:50.532Z,1010.97
2023-08-12T07:42:50.524Z,1010.92
2023-08-12T07:43:50.523Z,1010.90
2023-08-12T07:44:50.546Z,1010.88
2023-08-12T07:46:00.204Z,1010.88
2023-08-12T07:46:50.533Z,1010.93
2023-08-12T07:47:50.600Z,1010.95
2023-08-12T07:48:50.542Z,1010.97
2023-08-12T07:49:50.533Z,1011.02
2023-08-12T07:50:50.547Z,1011.00
2023-08-12T07:51:50.550Z,1011.03
2023-08-12T07:52:50.541Z,1010.99
2023-08-12T07:53:50.578Z,1011.01
2023-08-12T07:54:50.547Z,1010.97
2023-08-12T07:55:50.536Z,1010.95
2023-08-12T07:56:50.546Z,1010.96
2023-08-12T07:57:50.545Z,1010.97
2023-08-12T07:58:50.546Z,1010.97
2023-08-12T07:59:50.542Z,1010.95
2023-08-12T08:00:50.546Z,1010.94
2023-08-12T08:01:50.614Z,1010.96
2023-08-12T08:02:50.579Z,1010.91
2023-08-12T08:03:50.547Z,1010.94
2023-08-12T08:04:50.644Z,1010.94
2023-08-12T08:05:50.560Z,1010.95
2023-08-12T08:06:51.777Z,1010.89
2023-08-12T08:07:50.579Z,1010.89
2023-08-12T08:08:50.558Z,1010.91
2023-08-12T08:09:50.559Z,1010.90
2023-08-12T08:10:50.560Z,1010.90
2023-08-12T08:11:50.560Z,1010.91
2023-08-12T08:12:50.563Z,1010.91
2023-08-12T08:13:50.563Z,1010.90
2023-08-12T08:14:50.564Z,1010.87
2023-08-12T08:15:50.565Z,1010.87
2023-08-12T08:16:50.658Z,1010.84
2023-08-12T08:17:50.747Z,1010.84
2023-08-12T08:18:50.571Z,1010.82
2023-08-12T08:19:50.568Z,1010.81
2023-08-12T08:20:50.582Z,1010.83
2023-08-12T08:21:50.573Z,1010.81
2023-08-12T08:22:50.577Z,1010.83
2023-08-12T08:23:50.600Z,1010.82
2023-08-12T08:24:50.581Z,1010.79
2023-08-12T08:25:50.607Z,1010.78
2023-08-12T08:26:50.582Z,1010.76
2023-08-12T08:27:50.596Z,1010.72
2023-08-12T08:28:50.603Z,1010.75
2023-08-12T08:29:50.616Z,1010.73
2023-08-12T08:30:50.649Z,1010.76
2023-08-12T08:31:50.618Z,1010.80
2023-08-12T08:32:50.657Z,1010.82
2023-08-12T08:33:50.587Z,1010.82
2023-08-12T08:34:50.609Z,1010.85
2023-08-12T08:35:50.677Z,1010.88
2023-08-12T08:36:52.484Z,1010.86
2023-08-12T08:37:50.592Z,1010.86
2023-08-12T08:38:50.596Z,1010.90
2023-08-12T08:39:50.632Z,1010.91
2023-08-12T08:40:50.599Z,1010.90
2023-08-12T08:41:50.606Z,1010.94
2023-08-12T08:42:50.600Z,1010.94
2023-08-12T08:43:50.607Z,1010.88
2023-08-12T08:44:50.605Z,1010.87
2023-08-12T08:45:50.653Z,1010.82
2023-08-12T08:46:50.606Z,1010.89
2023-08-12T08:47:50.663Z,1010.97
2023-08-12T08:48:50.611Z,1010.98
2023-08-12T08:49:50.613Z,1010.94
2023-08-12T08:50:50.624Z,1010.89
2023-08-12T08:51:50.618Z,1010.91
2023-08-12T08:52:50.615Z,1010.90
2023-08-12T08:53:52.434Z,1010.97
2023-08-12T08:54:53.268Z,1010.97
2023-08-12T08:55:50.647Z,1011.00
2023-08-12T08:56:51.510Z,1011.00
2023-08-12T08:57:50.623Z,1011.02
2023-08-12T08:58:50.628Z,1011.01
2023-08-12T08:59:58.242Z,1011.00
2023-08-12T09:00:50.637Z,1011.03
2023-08-12T09:01:50.723Z,1011.06
2023-08-12T09:02:50.670Z,1011.05
2023-08-12T09:03:50.630Z,1011.08
2023-08-12T09:04:50.662Z,1011.03
2023-08-12T09:05:50.635Z,1011.01
2023-08-12T09:06:50.649Z,1011.04
2023-08-12T09:07:50.637Z,1010.96
2023-08-12T09:08:50.642Z,1010.93
2023-08-12T09:09:50.640Z,1010.91
2023-08-12T09:10:50.641Z,1010.93
2023-08-12T09:11:50.672Z,1010.92
2023-08-12T09:12:50.666Z,1010.94
2023-08-12T09:13:50.662Z,1010.94
2023-08-12T09:14:50.652Z,1010.90
2023-08-12T09:15:50.693Z,1011.00
2023-08-12T09:16:50.670Z,1010.96
2023-08-12T09:17:50.745Z,1010.89
2023-08-12T09:18:50.657Z,1010.88
2023-08-12T09:19:50.658Z,1010.92
2023-08-12T09:20:50.660Z,1011.01
2023-08-12T09:21:50.657Z,1011.04
2023-08-12T09:22:50.659Z,1011.04
2023-08-12T09:23:50.666Z,1011.05
2023-08-12T09:24:50.661Z,1011.07
2023-08-12T09:25:50.680Z,1011.04
2023-08-12T09:26:50.672Z,1011.07
2023-08-12T09:27:50.704Z,1011.05
2023-08-12T09:28:50.791Z,1011.08
2023-08-12T09:29:50.677Z,1011.06
2023-08-12T09:30:50.673Z,1011.06
2023-08-12T09:31:50.736Z,1011.04
2023-08-12T09:32:50.721Z,1011.04
2023-08-12T09:33:50.679Z,1011.02
2023-08-12T09:34:50.683Z,1011.02
2023-08-12T09:35:50.686Z,1011.02
2023-08-12T09:36:50.685Z,1011.04
2023-08-12T09:37:50.692Z,1011.04
2023-08-12T09:38:50.686Z,1011.02
2023-08-12T09:39:50.685Z,1011.03
2023-08-12T09:40:50.694Z,1011.05
2023-08-12T09:41:50.689Z,1011.01
2023-08-12T09:42:50.694Z,1010.98
2023-08-12T09:43:50.713Z,1011.01
2023-08-12T09:44:50.694Z,1011.01
2023-08-12T09:45:50.730Z,1011.04
2023-08-12T09:46:50.697Z,1011.02
2023-08-12T09:47:50.736Z,1010.97
2023-08-12T09:48:50.701Z,1011.00
2023-08-12T09:49:50.724Z,1010.99
2023-08-12T09:50:50.703Z,1011.02
2023-08-12T09:51:50.705Z,1011.05
2023-08-12T09:52:50.705Z,1011.06
2023-08-12T09:53:50.713Z,1011.04
2023-08-12T09:54:50.708Z,1011.05
2023-08-12T09:55:50.716Z,1010.97
2023-08-12T09:56:50.709Z,1010.99
2023-08-12T09:57:50.713Z,1011.04
2023-08-12T09:58:50.717Z,1011.00
2023-08-12T09:59:50.733Z,1010.99
2023-08-12T10:00:50.716Z,1011.02
2023-08-12T10:01:50.725Z,1010.99
2023-08-12T10:02:50.794Z,1010.96
2023-08-12T10:03:50.745Z,1010.98
2023-08-12T10:04:50.723Z,1011.00
2023-08-12T10:05:50.739Z,1010.96
2023-08-12T10:06:50.732Z,1011.00
2023-08-12T10:07:50.738Z,1011.04
2023-08-12T10:08:50.731Z,1010.98
2023-08-12T10:09:50.746Z,1010.97
2023-08-12T10:11:03.114Z,1010.94
2023-08-12T10:11:50.736Z,1010.96
2023-08-12T10:12:50.748Z,1010.94
2023-08-12T10:13:50.740Z,1010.92
2023-08-12T10:14:50.749Z,1010.90
2023-08-12T10:15:50.791Z,1010.89
2023-08-12T10:16:50.745Z,1010.93
2023-08-12T10:17:50.780Z,1010.92
2023-08-12T10:18:50.746Z,1010.90
2023-08-12T10:19:50.750Z,1010.93
2023-08-12T10:20:50.748Z,1010.89
2023-08-12T10:21:50.755Z,1010.90
2023-08-12T10:22:50.754Z,1010.86
2023-08-12T10:23:50.758Z,1010.88
2023-08-12T10:24:50.760Z,1010.91
2023-08-12T10:25:50.761Z,1010.93
2023-08-12T10:26:50.759Z,1010.87
2023-08-12T10:27:50.769Z,1010.92
2023-08-12T10:28:52.962Z,1010.91
2023-08-12T10:29:50.779Z,1010.88
2023-08-12T10:30:50.772Z,1010.93
2023-08-12T10:31:50.796Z,1010.88
2023-08-12T10:32:50.794Z,1010.92
2023-08-12T10:33:50.781Z,1010.91
2023-08-12T10:34:50.772Z,1010.87
2023-08-12T10:35:50.794Z,1010.94
2023-08-12T10:37:01.380Z,1010.92
2023-08-12T10:37:50.778Z,1010.89
2023-08-12T10:38:50.775Z,1010.87
2023-08-12T10:39:50.783Z,1010.86
2023-08-12T10:40:50.793Z,1010.89
2023-08-12T10:41:50.794Z,1010.83
2023-08-12T10:42:50.790Z,1010.84
2023-08-12T10:43:50.790Z,1010.83
2023-08-12T10:44:50.786Z,1010.80
2023-08-12T10:45:50.796Z,1010.77
2023-08-12T10:46:50.838Z,1010.77
2023-08-12T10:47:50.877Z,1010.79
2023-08-12T10:48:50.798Z,1010.78
2023-08-12T10:49:50.812Z,1010.70
2023-08-12T10:50:50.797Z,1010.73
2023-08-12T10:51:50.811Z,1010.76
2023-08-12T10:52:50.796Z,1010.74
2023-08-12T10:53:50.803Z,1010.72
2023-08-12T10:54:50.804Z,1010.69
2023-08-12T10:55:50.806Z,1010.69
2023-08-12T10:56:50.812Z,1010.68
2023-08-12T10:57:51.276Z,1010.68
2023-08-12T10:58:50.811Z,1010.68
2023-08-12T10:59:50.819Z,1010.64
2023-08-12T11:00:50.861Z,1010.63
2023-08-12T11:01:50.828Z,1010.62
2023-08-12T11:02:50.852Z,1010.62
2023-08-12T11:03:50.853Z,1010.61
2023-08-12T11:04:50.820Z,1010.61
2023-08-12T11:05:50.827Z,1010.61
2023-08-12T11:06:50.824Z,1010.60
2023-08-12T11:07:50.851Z,1010.62
2023-08-12T11:08:50.830Z,1010.74
2023-08-12T11:09:50.832Z,1010.79
2023-08-12T11:10:50.843Z,1010.81
2023-08-12T11:11:50.833Z,1010.89
2023-08-12T11:12:50.839Z,1010.94
2023-08-12T11:13:50.840Z,1010.90
2023-08-12T11:14:50.843Z,1010.84
2023-08-12T11:15:50.855Z,1010.83
2023-08-12T11:16:51.359Z,1010.81
2023-08-12T11:17:50.927Z,1010.80
2023-08-12T11:18:50.849Z,1010.77
2023-08-12T11:19:50.867Z,1010.74
2023-08-12T11:20:50.851Z,1010.74
2023-08-12T11:21:50.852Z,1010.71
2023-08-12T11:22:50.850Z,1010.71
2023-08-12T11:23:50.853Z,1010.72
2023-08-12T11:24:50.850Z,1010.68
2023-08-12T11:25:50.857Z,1010.67
2023-08-12T11:26:50.862Z,1010.68
2023-08-12T11:27:50.865Z,1010.70
2023-08-12T11:28:50.862Z,1010.69
2023-08-12T11:29:50.873Z,1010.70
2023-08-12T11:30:50.876Z,1010.68
2023-08-12T11:31:50.874Z,1010.67
2023-08-12T11:32:50.925Z,1010.68
2023-08-12T11:33:50.879Z,1010.67
2023-08-12T11:34:50.876Z,1010.65
2023-08-12T11:35:50.890Z,1010.69
2023-08-12T11:36:50.874Z,1010.64
2023-08-12T11:37:50.884Z,1010.64
2023-08-12T11:38:50.875Z,1010.67
2023-08-12T11:39:50.878Z,1010.63
2023-08-12T11:40:50.880Z,1010.62
2023-08-12T11:41:50.876Z,1010.64
2023-08-12T11:42:50.881Z,1010.61
2023-08-12T11:43:50.880Z,1010.61
2023-08-12T11:44:50.882Z,1010.62
2023-08-12T11:45:50.891Z,1010.60
2023-08-12T11:46:50.886Z,1010.59
2023-08-12T11:47:50.916Z,1010.61
2023-08-12T11:48:52.024Z,1010.65
2023-08-12T11:49:50.902Z,1010.67
2023-08-12T11:50:50.890Z,1010.68
2023-08-12T11:51:50.973Z,1010.73
2023-08-12T11:52:50.897Z,1010.72
2023-08-12T11:53:50.902Z,1010.71
2023-08-12T11:54:50.897Z,1010.70
2023-08-12T11:55:50.900Z,1010.65
2023-08-12T11:56:50.899Z,1010.64
2023-08-12T11:57:50.904Z,1010.63
2023-08-12T11:58:53.638Z,1010.63
2023-08-12T11:59:50.913Z,1010.58
2023-08-12T12:00:50.944Z,1010.57
2023-08-12T12:01:51.018Z,1010.55
2023-08-12T12:02:50.961Z,1010.56
2023-08-12T12:03:50.952Z,1010.61
2023-08-12T12:04:50.912Z,1010.58
2023-08-12T12:05:50.919Z,1010.62